createdAt,value
2022-12-19T00:07:01.702Z,2
2022-12-19T00:17:01.727Z,1
2022-12-19T00:27:01.715Z,3
2022-12-19T00:37:01.726Z,3
2022-12-19T00:47:01.717Z,1
2022-12-19T00:57:01.696Z,0
2022-12-19T01:07:03.086Z,1
2022-12-19T01:17:01.713Z,2
2022-12-19T01:27:01.711Z,0
2022-12-19T01:37:01.690Z,2
2022-12-19T01:47:01.679Z,4
2022-12-19T01:57:01.718Z,4
2022-12-19T02:07:02.501Z,4
2022-12-19T02:17:01.736Z,3
2022-12-19T02:27:01.767Z,2
2022-12-19T02:37:01.759Z,4
2022-12-19T02:47:01.797Z,3
2022-12-19T02:57:01.761Z,2
2022-12-19T03:07:01.992Z,2
2022-12-19T03:17:01.856Z,4
2022-12-19T03:27:02.014Z,0
2022-12-19T03:37:01.789Z,4
2022-12-19T03:47:01.971Z,3
2022-12-19T03:57:01.773Z,1
2022-12-19T04:07:02.042Z,1
2022-12-19T04:17:01.819Z,0
2022-12-19T04:27:02.031Z,0
2022-12-19T04:37:01.825Z,0
2022-12-19T04:47:02.076Z,1
2022-12-19T04:57:01.811Z,4
2022-12-19T05:07:02.022Z,1
2022-12-19T05:17:01.881Z,0
2022-12-19T05:27:02.065Z,1
2022-12-19T05:37:01.827Z,1
2022-12-19T05:47:02.069Z,3
2022-12-19T05:57:02.009Z,0
2022-12-19T06:07:02.066Z,1
2022-12-19T06:17:02.045Z,1
2022-12-19T06:27:02.076Z,6
2022-12-19T06:37:05.238Z,1
2022-12-19T06:47:02.039Z,4
2022-12-19T06:57:02.015Z,1
2022-12-19T07:07:02.043Z,4
2022-12-19T07:17:02.048Z,2
2022-12-19T07:27:02.235Z,3
2022-12-19T07:37:02.053Z,2
2022-12-19T07:47:02.272Z,7
2022-12-19T07:57:02.049Z,5
2022-12-19T08:07:02.261Z,1
2022-12-19T08:27:02.242Z,4
2022-12-19T08:37:02.039Z,1
2022-12-19T08:47:02.150Z,3
2022-12-19T08:57:02.003Z,6
2022-12-19T09:07:02.217Z,3
2022-12-19T09:17:02.578Z,3
2022-12-19T09:27:02.233Z,4
2022-12-19T09:37:02.194Z,5
2022-12-19T09:47:02.129Z,8
2022-12-19T09:57:02.203Z,4
2022-12-19T10:07:22.592Z,3
2022-12-19T10:17:23.481Z,3
2022-12-19T10:27:02.340Z,6
2022-12-19T10:37:27.483Z,4
2022-12-19T10:47:03.898Z,4
2022-12-19T10:57:02.336Z,1
2022-12-19T11:07:02.488Z,4
2022-12-19T11:20:41.292Z,5
2022-12-19T11:29:28.907Z,0
2022-12-19T11:37:02.323Z,1
2022-12-19T11:47:02.322Z,0
2022-12-19T11:57:02.316Z,0
2022-12-19T12:07:03.048Z,0
2022-12-19T12:21:05.340Z,1
2022-12-19T12:31:35.459Z,2
2022-12-19T12:47:02.497Z,5
2022-12-19T12:57:02.317Z,7
2022-12-19T13:07:02.513Z,10
2022-12-19T13:17:02.394Z,3
2022-12-19T13:27:02.512Z,13
2022-12-19T13:39:47.549Z,17
2022-12-19T13:47:02.578Z,17
2022-12-19T13:57:06.607Z,10
2022-12-19T14:07:02.457Z,11
2022-12-19T14:17:02.548Z,9
2022-12-19T14:28:16.379Z,11
2022-12-19T14:37:02.523Z,8
2022-12-19T14:52:52.076Z,10
2022-12-19T14:57:02.841Z,12
2022-12-19T15:07:06.122Z,21
2022-12-19T15:17:02.523Z,6
2022-12-19T15:27:02.482Z,5
2022-12-19T15:37:02.552Z,6
2022-12-19T15:47:02.569Z,6
2022-12-19T15:57:02.497Z,19
2022-12-19T16:07:02.622Z,19
2022-12-19T16:17:02.568Z,23
2022-12-19T16:27:02.635Z,18
2022-12-19T16:37:02.506Z,19
2022-12-19T16:47:02.661Z,16
2022-12-19T16:57:02.486Z,14
2022-12-19T17:07:02.636Z,14
2022-12-19T17:17:02.858Z,1
2022-12-19T17:27:02.648Z,2
2022-12-19T17:37:02.692Z,3
2022-12-19T17:47:02.639Z,4
2022-12-19T17:57:02.695Z,4
2022-12-19T18:07:02.684Z,0
2022-12-19T18:17:02.744Z,12
2022-12-19T18:27:02.633Z,0
2022-12-19T18:37:02.848Z,0
2022-12-19T18:47:02.633Z,0
2022-12-19T18:57:02.693Z,0
2022-12-19T19:07:02.609Z,0
2022-12-19T19:17:02.784Z,0
2022-12-19T19:27:02.844Z,2
2022-12-19T19:37:02.752Z,0
2022-12-19T19:47:02.821Z,1
2022-12-19T19:57:02.856Z,7
2022-12-19T20:07:02.850Z,0
2022-12-19T20:17:02.875Z,2
2022-12-19T20:27:02.817Z,5
2022-12-19T20:37:02.920Z,2
2022-12-19T20:47:02.851Z,0
2022-12-19T20:57:03.053Z,0
2022-12-19T21:07:02.785Z,0
2022-12-19T21:17:02.849Z,0
2022-12-19T21:27:02.824Z,1
2022-12-19T21:37:02.884Z,1
2022-12-19T21:47:02.820Z,8
2022-12-19T21:57:02.855Z,3
2022-12-19T22:07:02.970Z,12
2022-12-19T22:17:02.856Z,4
2022-12-19T22:27:02.954Z,6
2022-12-19T22:37:02.909Z,0
2022-12-19T22:47:02.967Z,0
2022-12-19T22:57:02.840Z,0
2022-12-19T23:07:02.971Z,0
2022-12-19T23:17:02.897Z,0
2022-12-19T23:27:02.974Z,0
2022-12-19T23:37:11.765Z,0
2022-12-19T23:47:04.107Z,0
2022-12-19T23:57:03.016Z,0
